sensor_id;sensor_type;location;lat;lon;timestamp;pressure;altitude;pressure_sealevel;temperature;humidity
30618;BME280;17384;51.214;9.202;2023-11-18T00:00:00;99488.66;;;-2.66;100.00
30618;BME280;17384;51.214;9.202;2023-11-18T00:02:26;99485.06;;;-2.65;100.00
30618;BME280;17384;51.214;9.202;2023-11-18T00:04:51;99484.31;;;-2.67;100.00
30618;BME280;17384;51.214;9.202;2023-11-18T00:07:17;99476.09;;;-2.75;100.00
30618;BME280;17384;51.214;9.202;2023-11-18T00:09:42;99479.09;;;-2.80;100.00
30618;BME280;17384;51.214;9.202;2023-11-18T00:12:11;99484.19;;;-2.77;100.00
30618;BME280;17384;51.214;9.202;2023-11-18T00:14:37;99491.41;;;-2.79;100.00
30618;BME280;17384;51.214;9.202;2023-11-18T00:17:03;99485.47;;;-2.82;100.00
30618;BME280;17384;51.214;9.202;2023-11-18T00:19:29;99489.22;;;-2.85;100.00
30618;BME280;17384;51.214;9.202;2023-11-18T00:21:55;99477.75;;;-2.85;100.00
30618;BME280;17384;51.214;9.202;2023-11-18T00:24:20;99485.47;;;-2.82;100.00
30618;BME280;17384;51.214;9.202;2023-11-18T00:26:46;99477.75;;;-2.85;100.00
30618;BME280;17384;51.214;9.202;2023-11-18T00:29:11;99502.53;;;-2.97;100.00
30618;BME280;17384;51.214;9.202;2023-11-18T00:31:37;99487.56;;;-2.98;100.00
30618;BME280;17384;51.214;9.202;2023-11-18T00:34:03;99496.47;;;-2.99;100.00
30618;BME280;17384;51.214;9.202;2023-11-18T00:36:28;99498.19;;;-2.98;100.00
30618;BME280;17384;51.214;9.202;2023-11-18T00:38:54;99490.22;;;-2.98;100.00
30618;BME280;17384;51.214;9.202;2023-11-18T00:41:20;99496.72;;;-3.02;100.00
30618;BME280;17384;51.214;9.202;2023-11-18T00:43:46;99491.16;;;-2.99;100.00
30618;BME280;17384;51.214;9.202;2023-11-18T00:46:12;99499.28;;;-3.01;100.00
30618;BME280;17384;51.214;9.202;2023-11-18T00:48:38;99496.00;;;-3.04;100.00
30618;BME280;17384;51.214;9.202;2023-11-18T00:51:05;99499.63;;;-3.05;100.00
30618;BME280;17384;51.214;9.202;2023-11-18T00:53:31;99490.91;;;-3.08;100.00
30618;BME280;17384;51.214;9.202;2023-11-18T00:55:56;99501.31;;;-3.04;100.00
30618;BME280;17384;51.214;9.202;2023-11-18T00:58:21;99510.22;;;-3.05;100.00
30618;BME280;17384;51.214;9.202;2023-11-18T01:00:47;99502.16;;;-3.04;100.00
30618;BME280;17384;51.214;9.202;2023-11-18T01:03:12;99501.13;;;-3.14;100.00
30618;BME280;17384;51.214;9.202;2023-11-18T01:05:38;99512.38;;;-3.11;100.00
30618;BME280;17384;51.214;9.202;2023-11-18T01:08:04;99505.38;;;-3.12;100.00
30618;BME280;17384;51.214;9.202;2023-11-18T01:10:30;99512.47;;;-3.12;100.00
30618;BME280;17384;51.214;9.202;2023-11-18T01:12:56;99507.28;;;-3.14;100.00
30618;BME280;17384;51.214;9.202;2023-11-18T01:15:23;99518.09;;;-3.17;100.00
30618;BME280;17384;51.214;9.202;2023-11-18T01:17:49;99513.13;;;-3.21;100.00
30618;BME280;17384;51.214;9.202;2023-11-18T01:20:14;99521.19;;;-3.23;100.00
30618;BME280;17384;51.214;9.202;2023-11-18T01:22:46;99520.69;;;-3.28;100.00
30618;BME280;17384;51.214;9.202;2023-11-18T01:25:12;99523.22;;;-3.26;100.00
30618;BME280;17384;51.214;9.202;2023-11-18T01:27:37;99529.16;;;-3.23;100.00
30618;BME280;17384;51.214;9.202;2023-11-18T01:30:05;99529.91;;;-3.21;100.00
30618;BME280;17384;51.214;9.202;2023-11-18T01:32:31;99523.84;;;-3.23;100.00
30618;BME280;17384;51.214;9.202;2023-11-18T01:34:57;99519.22;;;-3.32;100.00
30618;BME280;17384;51.214;9.202;2023-11-18T01:37:22;99518.28;;;-3.31;100.00
30618;BME280;17384;51.214;9.202;2023-11-18T01:39:49;99519.34;;;-3.33;100.00
30618;BME280;17384;51.214;9.202;2023-11-18T01:42:15;99522.22;;;-3.36;100.00
30618;BME280;17384;51.214;9.202;2023-11-18T01:44:40;99519.03;;;-3.42;100.00
30618;BME280;17384;51.214;9.202;2023-11-18T01:47:07;99521.53;;;-3.27;100.00
30618;BME280;17384;51.214;9.202;2023-11-18T01:49:38;99514.78;;;-3.31;100.00
30618;BME280;17384;51.214;9.202;2023-11-18T01:52:06;99535.47;;;-3.36;100.00
30618;BME280;17384;51.214;9.202;2023-11-18T01:54:34;99524.75;;;-3.35;100.00
30618;BME280;17384;51.214;9.202;2023-11-18T01:57:03;99535.16;;;-3.32;100.00
30618;BME280;17384;51.214;9.202;2023-11-18T01:59:32;99535.28;;;-3.46;100.00
30618;BME280;17384;51.214;9.202;2023-11-18T02:01:59;99525.41;;;-3.44;100.00
30618;BME280;17384;51.214;9.202;2023-11-18T02:04:25;99534.53;;;-3.35;100.00
30618;BME280;17384;51.214;9.202;2023-11-18T02:06:52;99534.94;;;-3.29;100.00
30618;BME280;17384;51.214;9.202;2023-11-18T02:09:19;99532.78;;;-3.24;100.00
30618;BME280;17384;51.214;9.202;2023-11-18T02:14:25;99539.25;;;-3.28;100.00
30618;BME280;17384;51.214;9.202;2023-11-18T02:16:52;99535.78;;;-3.28;100.00
30618;BME280;17384;51.214;9.202;2023-11-18T02:19:23;99530.47;;;-3.28;100.00
30618;BME280;17384;51.214;9.202;2023-11-18T02:21:49;99536.66;;;-3.41;100.00
30618;BME280;17384;51.214;9.202;2023-11-18T02:24:31;99542.50;;;-3.48;100.00
30618;BME280;17384;51.214;9.202;2023-11-18T02:27:01;99544.72;;;-3.55;100.00
30618;BME280;17384;51.214;9.202;2023-11-18T02:29:31;99538.38;;;-3.65;100.00
30618;BME280;17384;51.214;9.202;2023-11-18T02:32:27;99547.94;;;-3.62;100.00
30618;BME280;17384;51.214;9.202;2023-11-18T02:35:23;99543.59;;;-3.63;100.00
30618;BME280;17384;51.214;9.202;2023-11-18T02:37:53;99547.31;;;-3.66;100.00
30618;BME280;17384;51.214;9.202;2023-11-18T02:40:25;99537.66;;;-3.67;100.00
30618;BME280;17384;51.214;9.202;2023-11-18T02:42:56;99535.84;;;-3.66;100.00
30618;BME280;17384;51.214;9.202;2023-11-18T02:45:24;99539.66;;;-3.70;100.00
30618;BME280;17384;51.214;9.202;2023-11-18T02:47:49;99551.13;;;-3.70;100.00
30618;BME280;17384;51.214;9.202;2023-11-18T02:50:15;99538.34;;;-3.52;100.00
30618;BME280;17384;51.214;9.202;2023-11-18T02:52:41;99541.75;;;-3.50;100.00
30618;BME280;17384;51.214;9.202;2023-11-18T02:55:08;99523.66;;;-3.56;100.00
30618;BME280;17384;51.214;9.202;2023-11-18T02:57:34;99531.81;;;-3.59;100.00
30618;BME280;17384;51.214;9.202;2023-11-18T03:00:00;99529.69;;;-3.67;100.00
30618;BME280;17384;51.214;9.202;2023-11-18T03:02:28;99542.41;;;-3.72;100.00
30618;BME280;17384;51.214;9.202;2023-11-18T03:04:59;99532.97;;;-3.76;100.00
30618;BME280;17384;51.214;9.202;2023-11-18T03:07:25;99540.28;;;-3.80;100.00
30618;BME280;17384;51.214;9.202;2023-11-18T03:09:53;99526.09;;;-3.79;100.00
30618;BME280;17384;51.214;9.202;2023-11-18T03:12:22;99542.94;;;-3.80;100.00
30618;BME280;17384;51.214;9.202;2023-11-18T03:14:48;99542.19;;;-3.82;100.00
30618;BME280;17384;51.214;9.202;2023-11-18T03:17:13;99530.25;;;-3.87;100.00
30618;BME280;17384;51.214;9.202;2023-11-18T03:19:39;99534.50;;;-3.85;100.00
30618;BME280;17384;51.214;9.202;2023-11-18T03:22:04;99528.66;;;-3.90;100.00
30618;BME280;17384;51.214;9.202;2023-11-18T03:24:30;99531.53;;;-3.93;100.00
30618;BME280;17384;51.214;9.202;2023-11-18T03:26:56;99542.66;;;-3.88;100.00
30618;BME280;17384;51.214;9.202;2023-11-18T03:29:21;99530.53;;;-3.66;100.00
30618;BME280;17384;51.214;9.202;2023-11-18T03:31:48;99542.09;;;-3.67;100.00
30618;BME280;17384;51.214;9.202;2023-11-18T03:34:17;99526.94;;;-3.78;100.00
30618;BME280;17384;51.214;9.202;2023-11-18T03:36:45;99528.66;;;-3.90;100.00
30618;BME280;17384;51.214;9.202;2023-11-18T03:39:12;99542.00;;;-4.04;100.00
30618;BME280;17384;51.214;9.202;2023-11-18T03:41:38;99531.41;;;-4.04;100.00
30618;BME280;17384;51.214;9.202;2023-11-18T03:44:04;99529.06;;;-3.96;100.00
30618;BME280;17384;51.214;9.202;2023-11-18T03:46:30;99529.81;;;-3.94;100.00
30618;BME280;17384;51.214;9.202;2023-11-18T03:48:59;99520.81;;;-3.91;100.00
30618;BME280;17384;51.214;9.202;2023-11-18T03:51:24;99514.66;;;-3.92;100.00
30618;BME280;17384;51.214;9.202;2023-11-18T03:53:50;99520.72;;;-3.90;100.00
30618;BME280;17384;51.214;9.202;2023-11-18T03:56:18;99524.59;;;-3.83;100.00
30618;BME280;17384;51.214;9.202;2023-11-18T03:58:44;99515.47;;;-3.79;100.00
30618;BME280;17384;51.214;9.202;2023-11-18T04:01:19;99504.03;;;-3.79;100.00
30618;BME280;17384;51.214;9.202;2023-11-18T04:03:45;99515.06;;;-3.72;100.00
30618;BME280;17384;51.214;9.202;2023-11-18T04:06:11;99507.84;;;-3.70;100.00
30618;BME280;17384;51.214;9.202;2023-11-18T04:08:36;99515.38;;;-3.64;100.00
30618;BME280;17384;51.214;9.202;2023-11-18T04:11:02;99503.28;;;-3.68;100.00
30618;BME280;17384;51.214;9.202;2023-11-18T04:13:27;99506.69;;;-3.66;100.00
30618;BME280;17384;51.214;9.202;2023-11-18T04:15:53;99518.03;;;-3.64;100.00
30618;BME280;17384;51.214;9.202;2023-11-18T04:18:18;99504.88;;;-3.66;100.00
30618;BME280;17384;51.214;9.202;2023-11-18T04:20:44;99501.38;;;-3.66;100.00
30618;BME280;17384;51.214;9.202;2023-11-18T04:23:09;99508.59;;;-3.68;100.00
30618;BME280;17384;51.214;9.202;2023-11-18T04:25:37;99505.28;;;-3.59;100.00
30618;BME280;17384;51.214;9.202;2023-11-18T04:28:02;99504.56;;;-3.61;100.00
30618;BME280;17384;51.214;9.202;2023-11-18T04:30:29;99503.72;;;-3.62;100.00
30618;BME280;17384;51.214;9.202;2023-11-18T04:32:54;99509.84;;;-3.61;100.00
30618;BME280;17384;51.214;9.202;2023-11-18T04:35:20;99502.06;;;-3.52;100.00
30618;BME280;17384;51.214;9.202;2023-11-18T04:37:47;99497.00;;;-3.55;100.00
30618;BME280;17384;51.214;9.202;2023-11-18T04:40:13;99498.34;;;-3.49;100.00
30618;BME280;17384;51.214;9.202;2023-11-18T04:42:39;99502.72;;;-3.48;100.00
30618;BME280;17384;51.214;9.202;2023-11-18T04:45:05;99495.31;;;-3.56;100.00
30618;BME280;17384;51.214;9.202;2023-11-18T04:47:31;99489.59;;;-3.62;100.00
30618;BME280;17384;51.214;9.202;2023-11-18T04:49:56;99510.59;;;-3.59;100.00
30618;BME280;17384;51.214;9.202;2023-11-18T04:52:24;99511.19;;;-3.43;100.00
30618;BME280;17384;51.214;9.202;2023-11-18T04:54:50;99496.66;;;-3.50;100.00
30618;BME280;17384;51.214;9.202;2023-11-18T04:57:16;99512.22;;;-3.33;100.00
30618;BME280;17384;51.214;9.202;2023-11-18T04:59:42;99511.94;;;-3.41;100.00
30618;BME280;17384;51.214;9.202;2023-11-18T05:02:08;99506.09;;;-3.46;100.00
30618;BME280;17384;51.214;9.202;2023-11-18T05:04:34;99510.13;;;-3.53;100.00
30618;BME280;17384;51.214;9.202;2023-11-18T05:07:01;99501.22;;;-3.52;100.00
30618;BME280;17384;51.214;9.202;2023-11-18T05:09:26;99504.09;;;-3.55;100.00
30618;BME280;17384;51.214;9.202;2023-11-18T05:11:52;99504.09;;;-3.55;100.00
30618;BME280;17384;51.214;9.202;2023-11-18T05:14:18;99504.84;;;-3.53;100.00
30618;BME280;17384;51.214;9.202;2023-11-18T05:16:43;99498.31;;;-3.60;100.00
30618;BME280;17384;51.214;9.202;2023-11-18T05:19:09;99488.13;;;-3.66;100.00
30618;BME280;17384;51.214;9.202;2023-11-18T05:21:34;99479.00;;;-3.62;100.00
30618;BME280;17384;51.214;9.202;2023-11-18T05:24:00;99478.72;;;-3.47;100.00
30618;BME280;17384;51.214;9.202;2023-11-18T05:26:25;99465.69;;;-3.50;100.00
30618;BME280;17384;51.214;9.202;2023-11-18T05:28:52;99473.25;;;-3.56;100.00
30618;BME280;17384;51.214;9.202;2023-11-18T05:31:17;99468.19;;;-3.59;100.00
30618;BME280;17384;51.214;9.202;2023-11-18T05:33:44;99462.75;;;-3.58;100.00
30618;BME280;17384;51.214;9.202;2023-11-18T05:36:11;99478.69;;;-3.58;100.00
30618;BME280;17384;51.214;9.202;2023-11-18T05:38:37;99459.25;;;-3.58;100.00
30618;BME280;17384;51.214;9.202;2023-11-18T05:41:03;99460.59;;;-3.53;100.00
30618;BME280;17384;51.214;9.202;2023-11-18T05:43:32;99466.75;;;-3.52;100.00
30618;BME280;17384;51.214;9.202;2023-11-18T05:46:08;99465.22;;;-3.67;100.00
30618;BME280;17384;51.214;9.202;2023-11-18T05:48:42;99473.28;;;-3.69;100.00
30618;BME280;17384;51.214;9.202;2023-11-18T05:51:08;99470.41;;;-3.66;100.00
30618;BME280;17384;51.214;9.202;2023-11-18T05:53:33;99475.19;;;-3.71;100.00
30618;BME280;17384;51.214;9.202;2023-11-18T05:55:59;99475.59;;;-3.64;100.00
30618;BME280;17384;51.214;9.202;2023-11-18T05:58:24;99472.16;;;-3.54;100.00
30618;BME280;17384;51.214;9.202;2023-11-18T06:00:49;99475.34;;;-3.49;100.00
30618;BME280;17384;51.214;9.202;2023-11-18T06:03:15;99475.84;;;-3.44;100.00
30618;BME280;17384;51.214;9.202;2023-11-18T06:05:40;99473.53;;;-3.48;100.00
30618;BME280;17384;51.214;9.202;2023-11-18T06:08:06;99464.84;;;-3.50;100.00
30618;BME280;17384;51.214;9.202;2023-11-18T06:10:33;99454.00;;;-3.47;100.00
30618;BME280;17384;51.214;9.202;2023-11-18T06:12:59;99452.84;;;-3.43;100.00
30618;BME280;17384;51.214;9.202;2023-11-18T06:15:25;99458.47;;;-3.24;100.00
30618;BME280;17384;51.214;9.202;2023-11-18T06:17:50;99456.47;;;-3.20;100.00
30618;BME280;17384;51.214;9.202;2023-11-18T06:20:16;99439.69;;;-3.21;100.00
30618;BME280;17384;51.214;9.202;2023-11-18T06:22:42;99451.03;;;-3.19;100.00
30618;BME280;17384;51.214;9.202;2023-11-18T06:25:08;99446.69;;;-3.20;100.00
30618;BME280;17384;51.214;9.202;2023-11-18T06:27:34;99458.03;;;-3.18;100.00
30618;BME280;17384;51.214;9.202;2023-11-18T06:29:59;99449.22;;;-3.18;100.00
30618;BME280;17384;51.214;9.202;2023-11-18T06:32:25;99443.41;;;-3.23;100.00
30618;BME280;17384;51.214;9.202;2023-11-18T06:34:53;99440.88;;;-3.25;100.00
30618;BME280;17384;51.214;9.202;2023-11-18T06:37:20;99455.72;;;-3.22;100.00
30618;BME280;17384;51.214;9.202;2023-11-18T06:39:46;99476.84;;;-3.21;100.00
30618;BME280;17384;51.214;9.202;2023-11-18T06:42:14;99468.72;;;-3.30;100.00
30618;BME280;17384;51.214;9.202;2023-11-18T06:44:39;99468.00;;;-3.32;100.00
30618;BME280;17384;51.214;9.202;2023-11-18T06:47:05;99478.59;;;-3.09;100.00
30618;BME280;17384;51.214;9.202;2023-11-18T06:49:31;99475.97;;;-2.97;100.00
30618;BME280;17384;51.214;9.202;2023-11-18T06:52:00;99476.59;;;-2.94;100.00
30618;BME280;17384;51.214;9.202;2023-11-18T06:54:29;99478.81;;;-2.88;100.00
30618;BME280;17384;51.214;9.202;2023-11-18T06:56:55;99484.91;;;-2.98;100.00
30618;BME280;17384;51.214;9.202;2023-11-18T06:59:21;99485.75;;;-2.98;100.00
30618;BME280;17384;51.214;9.202;2023-11-18T07:01:46;99493.16;;;-2.90;100.00
30618;BME280;17384;51.214;9.202;2023-11-18T07:04:12;99493.44;;;-2.82;100.00
30618;BME280;17384;51.214;9.202;2023-11-18T07:06:39;99499.09;;;-2.87;100.00
30618;BME280;17384;51.214;9.202;2023-11-18T07:09:05;99510.56;;;-2.86;100.00
30618;BME280;17384;51.214;9.202;2023-11-18T07:11:38;99498.31;;;-2.65;100.00
30618;BME280;17384;51.214;9.202;2023-11-18T07:14:03;99497.25;;;-2.62;100.00
30618;BME280;17384;51.214;9.202;2023-11-18T07:16:29;99498.09;;;-2.62;100.00
30618;BME280;17384;51.214;9.202;2023-11-18T07:18:54;99487.72;;;-2.65;100.00
30618;BME280;17384;51.214;9.202;2023-11-18T07:21:20;99492.16;;;-2.77;100.00
30618;BME280;17384;51.214;9.202;2023-11-18T07:23:45;99497.22;;;-2.74;100.00
30618;BME280;17384;51.214;9.202;2023-11-18T07:26:11;99502.22;;;-2.58;100.00
30618;BME280;17384;51.214;9.202;2023-11-18T07:28:37;99495.41;;;-2.73;100.00
30618;BME280;17384;51.214;9.202;2023-11-18T07:31:02;99502.78;;;-2.65;100.00
30618;BME280;17384;51.214;9.202;2023-11-18T07:33:30;99495.09;;;-2.57;100.00
30618;BME280;17384;51.214;9.202;2023-11-18T07:35:58;99487.47;;;-2.62;100.00
30618;BME280;17384;51.214;9.202;2023-11-18T07:38:24;99486.53;;;-2.61;100.00
30618;BME280;17384;51.214;9.202;2023-11-18T07:40:49;99488.31;;;-2.61;100.00
30618;BME280;17384;51.214;9.202;2023-11-18T07:43:18;99487.72;;;-2.65;100.00
30618;BME280;17384;51.214;9.202;2023-11-18T07:45:46;99489.63;;;-2.67;100.00
30618;BME280;17384;51.214;9.202;2023-11-18T07:48:14;99482.91;;;-2.60;100.00
30618;BME280;17384;51.214;9.202;2023-11-18T07:50:42;99485.72;;;-2.39;100.00
30618;BME280;17384;51.214;9.202;2023-11-18T07:53:09;99483.91;;;-2.50;100.00
30618;BME280;17384;51.214;9.202;2023-11-18T07:55:35;99493.19;;;-2.55;100.00
30618;BME280;17384;51.214;9.202;2023-11-18T07:58:05;99493.53;;;-2.60;100.00
30618;BME280;17384;51.214;9.202;2023-11-18T08:03:05;99505.09;;;-2.61;100.00
30618;BME280;17384;51.214;9.202;2023-11-18T08:05:34;99512.75;;;-2.56;100.00
30618;BME280;17384;51.214;9.202;2023-11-18T08:07:59;99516.38;;;-2.46;100.00
30618;BME280;17384;51.214;9.202;2023-11-18T08:10:25;99519.19;;;-2.36;100.00
30618;BME280;17384;51.214;9.202;2023-11-18T08:12:51;99518.13;;;-2.34;100.00
30618;BME280;17384;51.214;9.202;2023-11-18T08:15:19;99506.69;;;-2.23;100.00
30618;BME280;17384;51.214;9.202;2023-11-18T08:17:45;99503.28;;;-2.25;100.00
30618;BME280;17384;51.214;9.202;2023-11-18T08:20:10;99508.97;;;-2.19;100.00
30618;BME280;17384;51.214;9.202;2023-11-18T08:22:42;99495.31;;;-2.25;100.00
30618;BME280;17384;51.214;9.202;2023-11-18T08:25:11;99494.59;;;-2.16;100.00
30618;BME280;17384;51.214;9.202;2023-11-18T08:27:39;99483.13;;;-2.06;100.00
30618;BME280;17384;51.214;9.202;2023-11-18T08:30:06;99489.78;;;-1.89;100.00
30618;BME280;17384;51.214;9.202;2023-11-18T08:32:37;99473.84;;;-1.89;100.00
30618;BME280;17384;51.214;9.202;2023-11-18T08:35:04;99459.13;;;-1.93;100.00
30618;BME280;17384;51.214;9.202;2023-11-18T08:37:32;99470.81;;;-1.84;100.00
30618;BME280;17384;51.214;9.202;2023-11-18T08:39:59;99472.53;;;-1.72;100.00
30618;BME280;17384;51.214;9.202;2023-11-18T08:42:25;99469.38;;;-1.77;100.00
30618;BME280;17384;51.214;9.202;2023-11-18T08:44:53;99466.22;;;-1.82;100.00
30618;BME280;17384;51.214;9.202;2023-11-18T08:47:20;99472.75;;;-1.86;100.00
30618;BME280;17384;51.214;9.202;2023-11-18T08:49:46;99472.53;;;-1.72;100.00
30618;BME280;17384;51.214;9.202;2023-11-18T08:52:12;99490.53;;;-1.64;100.00
30618;BME280;17384;51.214;9.202;2023-11-18T08:54:38;99483.38;;;-1.64;100.00
30618;BME280;17384;51.214;9.202;2023-11-18T08:57:24;99496.31;;;-1.48;100.00
30618;BME280;17384;51.214;9.202;2023-11-18T08:59:51;99495.19;;;-1.34;100.00
30618;BME280;17384;51.214;9.202;2023-11-18T09:02:19;99502.09;;;-1.32;100.00
30618;BME280;17384;51.214;9.202;2023-11-18T09:04:49;99509.84;;;-1.29;100.00
30618;BME280;17384;51.214;9.202;2023-11-18T09:07:15;99523.09;;;-1.07;100.00
30618;BME280;17384;51.214;9.202;2023-11-18T09:09:41;99511.38;;;-1.04;100.00
30618;BME280;17384;51.214;9.202;2023-11-18T09:12:06;99528.66;;;-0.87;100.00
30618;BME280;17384;51.214;9.202;2023-11-18T09:14:33;99523.63;;;-0.81;100.00
30618;BME280;17384;51.214;9.202;2023-11-18T09:16:59;99522.75;;;-0.70;100.00
30618;BME280;17384;51.214;9.202;2023-11-18T09:19:25;99518.41;;;-0.71;100.00
30618;BME280;17384;51.214;9.202;2023-11-18T09:21:51;99503.53;;;-0.74;100.00
30618;BME280;17384;51.214;9.202;2023-11-18T09:24:20;99502.88;;;-0.55;100.00
30618;BME280;17384;51.214;9.202;2023-11-18T09:26:46;99498.44;;;-0.45;100.00
30618;BME280;17384;51.214;9.202;2023-11-18T09:29:16;99507.53;;;-0.26;100.00
30618;BME280;17384;51.214;9.202;2023-11-18T09:31:46;99508.38;;;-0.26;100.00
30618;BME280;17384;51.214;9.202;2023-11-18T09:34:14;99496.69;;;-0.35;100.00
30618;BME280;17384;51.214;9.202;2023-11-18T09:36:45;99497.66;;;-0.36;100.00
30618;BME280;17384;51.214;9.202;2023-11-18T09:39:13;99498.00;;;-0.29;100.00
30618;BME280;17384;51.214;9.202;2023-11-18T09:41:55;99503.97;;;-0.16;100.00
30618;BME280;17384;51.214;9.202;2023-11-18T09:44:22;99496.16;;;-0.08;100.00
30618;BME280;17384;51.214;9.202;2023-11-18T09:46:54;99501.19;;;-0.14;100.00
30618;BME280;17384;51.214;9.202;2023-11-18T09:49:33;99492.31;;;0.06;100.00
30618;BME280;17384;51.214;9.202;2023-11-18T09:52:06;99492.97;;;0.29;100.00
30618;BME280;17384;51.214;9.202;2023-11-18T09:55:04;99491.06;;;0.41;100.00
30618;BME280;17384;51.214;9.202;2023-11-18T09:57:40;99466.13;;;0.51;100.00
30618;BME280;17384;51.214;9.202;2023-11-18T10:00:11;99463.78;;;0.67;100.00
30618;BME280;17384;51.214;9.202;2023-11-18T10:02:52;99440.63;;;0.78;100.00
30618;BME280;17384;51.214;9.202;2023-11-18T10:05:22;99443.69;;;0.83;100.00
30618;BME280;17384;51.214;9.202;2023-11-18T10:07:49;99457.84;;;0.64;100.00
30618;BME280;17384;51.214;9.202;2023-11-18T10:10:15;99434.41;;;0.67;100.00
30618;BME280;17384;51.214;9.202;2023-11-18T10:12:44;99450.00;;;0.72;100.00
30618;BME280;17384;51.214;9.202;2023-11-18T10:15:14;99430.63;;;0.89;100.00
30618;BME280;17384;51.214;9.202;2023-11-18T10:17:44;99428.94;;;0.88;100.00
30618;BME280;17384;51.214;9.202;2023-11-18T10:23:08;99411.78;;;0.91;100.00
30618;BME280;17384;51.214;9.202;2023-11-18T10:25:36;99411.25;;;0.97;100.00
30618;BME280;17384;51.214;9.202;2023-11-18T10:28:06;99398.88;;;0.96;100.00
30618;BME280;17384;51.214;9.202;2023-11-18T10:30:42;99411.78;;;1.10;100.00
30618;BME280;17384;51.214;9.202;2023-11-18T10:33:14;99404.38;;;1.04;100.00
30618;BME280;17384;51.214;9.202;2023-11-18T10:35:49;99402.25;;;1.27;100.00
30618;BME280;17384;51.214;9.202;2023-11-18T10:38:16;99406.03;;;1.15;100.00
30618;BME280;17384;51.214;9.202;2023-11-18T10:40:42;99399.44;;;1.09;100.00
30618;BME280;17384;51.214;9.202;2023-11-18T10:43:09;99416.03;;;1.22;100.00
30618;BME280;17384;51.214;9.202;2023-11-18T10:45:35;99404.63;;;1.11;100.00
30618;BME280;17384;51.214;9.202;2023-11-18T10:48:07;99407.16;;;1.22;100.00
30618;BME280;17384;51.214;9.202;2023-11-18T10:50:34;99414.63;;;1.18;100.00
30618;BME280;17384;51.214;9.202;2023-11-18T10:53:02;99409.56;;;1.15;100.00
30618;BME280;17384;51.214;9.202;2023-11-18T10:55:38;99412.66;;;1.20;100.00
30618;BME280;17384;51.214;9.202;2023-11-18T10:58:05;99390.84;;;1.25;100.00
30618;BME280;17384;51.214;9.202;2023-11-18T11:01:05;99385.38;;;1.36;100.00
30618;BME280;17384;51.214;9.202;2023-11-18T11:03:31;99377.22;;;1.28;100.00
30618;BME280;17384;51.214;9.202;2023-11-18T11:06:15;99365.34;;;1.40;100.00
30618;BME280;17384;51.214;9.202;2023-11-18T11:08:42;99380.81;;;1.46;100.00
30618;BME280;17384;51.214;9.202;2023-11-18T11:11:08;99370.81;;;1.58;100.00
30618;BME280;17384;51.214;9.202;2023-11-18T11:13:35;99352.25;;;1.56;100.00
30618;BME280;17384;51.214;9.202;2023-11-18T11:16:04;99356.19;;;1.62;100.00
30618;BME280;17384;51.214;9.202;2023-11-18T11:18:36;99373.56;;;1.76;100.00
30618;BME280;17384;51.214;9.202;2023-11-18T11:21:15;99384.56;;;1.73;100.00
30618;BME280;17384;51.214;9.202;2023-11-18T11:23:53;99370.31;;;1.82;100.00
30618;BME280;17384;51.214;9.202;2023-11-18T11:26:31;99354.53;;;1.88;100.00
30618;BME280;17384;51.214;9.202;2023-11-18T11:29:27;99349.81;;;2.00;100.00
30618;BME280;17384;51.214;9.202;2023-11-18T11:32:28;99343.34;;;2.02;100.00
30618;BME280;17384;51.214;9.202;2023-11-18T11:34:58;99336.16;;;2.03;100.00
30618;BME280;17384;51.214;9.202;2023-11-18T11:37:32;99329.41;;;1.99;100.00
30618;BME280;17384;51.214;9.202;2023-11-18T11:40:00;99320.09;;;2.03;100.00
30618;BME280;17384;51.214;9.202;2023-11-18T11:42:31;99288.69;;;2.05;100.00
30618;BME280;17384;51.214;9.202;2023-11-18T11:44:57;99291.06;;;2.08;100.00
30618;BME280;17384;51.214;9.202;2023-11-18T11:47:25;99265.41;;;2.15;100.00
30618;BME280;17384;51.214;9.202;2023-11-18T11:50:14;99266.09;;;2.17;100.00
30618;BME280;17384;51.214;9.202;2023-11-18T11:52:50;99253.31;;;2.11;100.00
30618;BME280;17384;51.214;9.202;2023-11-18T11:55:26;99267.78;;;2.18;100.00
30618;BME280;17384;51.214;9.202;2023-11-18T11:57:55;99268.06;;;2.15;100.00
30618;BME280;17384;51.214;9.202;2023-11-18T12:00:24;99259.75;;;2.18;100.00
30618;BME280;17384;51.214;9.202;2023-11-18T12:02:52;99250.69;;;2.19;100.00
30618;BME280;17384;51.214;9.202;2023-11-18T12:05:24;99262.78;;;2.23;100.00
30618;BME280;17384;51.214;9.202;2023-11-18T12:07:52;99271.44;;;2.17;100.00
30618;BME280;17384;51.214;9.202;2023-11-18T12:10:19;99269.28;;;2.21;100.00
30618;BME280;17384;51.214;9.202;2023-11-18T12:12:48;99262.34;;;2.28;100.00
30618;BME280;17384;51.214;9.202;2023-11-18T12:15:13;99254.41;;;2.36;100.00
30618;BME280;17384;51.214;9.202;2023-11-18T12:18:09;99258.22;;;2.33;100.00
30618;BME280;17384;51.214;9.202;2023-11-18T12:20:42;99245.91;;;2.41;100.00
30618;BME280;17384;51.214;9.202;2023-11-18T12:23:13;99245.91;;;2.41;100.00
30618;BME280;17384;51.214;9.202;2023-11-18T12:25:46;99231.22;;;2.45;100.00
30618;BME280;17384;51.214;9.202;2023-11-18T12:28:17;99235.59;;;2.46;100.00
30618;BME280;17384;51.214;9.202;2023-11-18T12:30:53;99242.44;;;2.48;100.00
30618;BME280;17384;51.214;9.202;2023-11-18T12:33:26;99236.78;;;2.51;100.00
30618;BME280;17384;51.214;9.202;2023-11-18T12:36:21;99250.31;;;2.50;100.00
30618;BME280;17384;51.214;9.202;2023-11-18T12:44:33;99232.59;;;2.66;100.00
30618;BME280;17384;51.214;9.202;2023-11-18T12:47:05;99228.00;;;2.59;100.00
30618;BME280;17384;51.214;9.202;2023-11-18T12:49:44;99215.81;;;2.64;100.00
30618;BME280;17384;51.214;9.202;2023-11-18T12:52:15;99225.41;;;2.67;100.00
30618;BME280;17384;51.214;9.202;2023-11-18T12:54:44;99220.22;;;2.73;100.00
30618;BME280;17384;51.214;9.202;2023-11-18T12:57:16;99222.28;;;2.80;100.00
30618;BME280;17384;51.214;9.202;2023-11-18T12:59:42;99215.41;;;2.77;100.00
30618;BME280;17384;51.214;9.202;2023-11-18T13:02:10;99216.75;;;2.73;100.00
30618;BME280;17384;51.214;9.202;2023-11-18T13:04:47;99186.25;;;2.74;100.00
30618;BME280;17384;51.214;9.202;2023-11-18T13:07:21;99166.50;;;2.75;100.00
30618;BME280;17384;51.214;9.202;2023-11-18T13:09:47;99188.31;;;2.80;100.00
30618;BME280;17384;51.214;9.202;2023-11-18T13:12:14;99187.16;;;2.83;100.00